sensor_id;sensor_type;location;lat;lon;timestamp;temperature;humidity
18169;DHT22;49877;50.398;30.324;2022-11-15T00:00:13;5.40;99.90
18169;DHT22;49877;50.398;30.324;2022-11-15T00:02:40;5.40;99.90
18169;DHT22;49877;50.398;30.324;2022-11-15T00:05:08;5.40;99.90
18169;DHT22;49877;50.398;30.324;2022-11-15T00:07:35;5.50;99.90
18169;DHT22;49877;50.398;30.324;2022-11-15T00:10:02;5.50;99.90
18169;DHT22;49877;50.398;30.324;2022-11-15T00:12:29;5.50;99.90
18169;DHT22;49877;50.398;30.324;2022-11-15T00:14:56;5.50;99.90
18169;DHT22;49877;50.398;30.324;2022-11-15T00:17:23;5.60;99.90
18169;DHT22;49877;50.398;30.324;2022-11-15T00:19:49;5.60;99.90
18169;DHT22;49877;50.398;30.324;2022-11-15T00:22:18;5.60;99.90
18169;DHT22;49877;50.398;30.324;2022-11-15T00:24:44;5.70;99.90
18169;DHT22;49877;50.398;30.324;2022-11-15T00:27:11;5.70;99.90
18169;DHT22;49877;50.398;30.324;2022-11-15T00:29:38;5.70;99.90
18169;DHT22;49877;50.398;30.324;2022-11-15T00:32:08;5.70;99.90
18169;DHT22;49877;50.398;30.324;2022-11-15T00:34:35;5.70;99.90
18169;DHT22;49877;50.398;30.324;2022-11-15T00:37:02;5.70;99.90
18169;DHT22;49877;50.398;30.324;2022-11-15T00:39:30;5.70;99.90
18169;DHT22;49877;50.398;30.324;2022-11-15T00:41:57;5.70;99.90
18169;DHT22;49877;50.398;30.324;2022-11-15T00:44:24;5.60;99.90
18169;DHT22;49877;50.398;30.324;2022-11-15T00:46:50;5.60;99.90
18169;DHT22;49877;50.398;30.324;2022-11-15T00:49:17;5.60;99.90
18169;DHT22;49877;50.398;30.324;2022-11-15T00:51:44;5.60;99.90
18169;DHT22;49877;50.398;30.324;2022-11-15T00:54:11;5.60;99.90
18169;DHT22;49877;50.398;30.324;2022-11-15T00:56:39;5.60;99.90
18169;DHT22;49877;50.398;30.324;2022-11-15T00:59:06;5.60;99.90
18169;DHT22;49877;50.398;30.324;2022-11-15T01:01:33;5.60;99.90
18169;DHT22;49877;50.398;30.324;2022-11-15T01:04:00;5.60;99.90
18169;DHT22;49877;50.398;30.324;2022-11-15T01:06:27;5.70;99.90
18169;DHT22;49877;50.398;30.324;2022-11-15T01:08:54;5.60;99.90
18169;DHT22;49877;50.398;30.324;2022-11-15T01:11:21;5.60;99.90
18169;DHT22;49877;50.398;30.324;2022-11-15T01:13:49;5.60;99.90
18169;DHT22;49877;50.398;30.324;2022-11-15T01:16:18;5.60;99.90
18169;DHT22;49877;50.398;30.324;2022-11-15T01:18:45;5.60;99.90
18169;DHT22;49877;50.398;30.324;2022-11-15T01:21:14;5.60;99.90
18169;DHT22;49877;50.398;30.324;2022-11-15T01:23:41;5.60;99.90
18169;DHT22;49877;50.398;30.324;2022-11-15T01:26:11;5.60;99.90
18169;DHT22;49877;50.398;30.324;2022-11-15T01:28:40;5.60;99.90
18169;DHT22;49877;50.398;30.324;2022-11-15T01:31:12;5.60;99.90
18169;DHT22;49877;50.398;30.324;2022-11-15T01:33:40;5.60;99.90
18169;DHT22;49877;50.398;30.324;2022-11-15T01:36:10;5.60;99.90
18169;DHT22;49877;50.398;30.324;2022-11-15T01:38:37;5.60;99.90
18169;DHT22;49877;50.398;30.324;2022-11-15T01:41:05;5.60;99.90
18169;DHT22;49877;50.398;30.324;2022-11-15T01:43:33;5.70;99.90
18169;DHT22;49877;50.398;30.324;2022-11-15T01:46:04;5.70;99.90
18169;DHT22;49877;50.398;30.324;2022-11-15T01:48:34;5.70;99.90
18169;DHT22;49877;50.398;30.324;2022-11-15T01:51:04;5.70;99.90
18169;DHT22;49877;50.398;30.324;2022-11-15T01:53:34;5.70;99.90
18169;DHT22;49877;50.398;30.324;2022-11-15T01:56:09;5.70;99.90
18169;DHT22;49877;50.398;30.324;2022-11-15T01:58:37;5.80;99.90
18169;DHT22;49877;50.398;30.324;2022-11-15T02:01:05;5.80;99.90
18169;DHT22;49877;50.398;30.324;2022-11-15T02:03:39;5.70;99.90
18169;DHT22;49877;50.398;30.324;2022-11-15T02:06:08;5.70;99.90
18169;DHT22;49877;50.398;30.324;2022-11-15T02:08:36;5.70;99.90
18169;DHT22;49877;50.398;30.324;2022-11-15T02:11:04;5.70;99.90
18169;DHT22;49877;50.398;30.324;2022-11-15T02:13:34;5.70;99.90
18169;DHT22;49877;50.398;30.324;2022-11-15T02:16:12;5.80;99.90
18169;DHT22;49877;50.398;30.324;2022-11-15T02:18:47;5.80;99.90
18169;DHT22;49877;50.398;30.324;2022-11-15T02:21:24;5.80;99.90
18169;DHT22;49877;50.398;30.324;2022-11-15T02:30:34;5.80;99.90
18169;DHT22;49877;50.398;30.324;2022-11-15T02:33:13;5.70;99.90
18169;DHT22;49877;50.398;30.324;2022-11-15T02:35:48;5.70;99.90
18169;DHT22;49877;50.398;30.324;2022-11-15T02:38:21;5.60;99.90
18169;DHT22;49877;50.398;30.324;2022-11-15T02:40:53;5.60;99.90
18169;DHT22;49877;50.398;30.324;2022-11-15T02:43:24;5.50;99.90
18169;DHT22;49877;50.398;30.324;2022-11-15T02:46:15;5.40;99.90
18169;DHT22;49877;50.398;30.324;2022-11-15T02:48:45;5.40;99.90
18169;DHT22;49877;50.398;30.324;2022-11-15T02:51:13;5.30;99.90
18169;DHT22;49877;50.398;30.324;2022-11-15T02:53:41;5.30;99.90
18169;DHT22;49877;50.398;30.324;2022-11-15T02:56:09;5.30;99.90
18169;DHT22;49877;50.398;30.324;2022-11-15T03:01:54;5.20;99.90
18169;DHT22;49877;50.398;30.324;2022-11-15T03:04:28;5.20;99.90
18169;DHT22;49877;50.398;30.324;2022-11-15T03:07:05;5.20;99.90
18169;DHT22;49877;50.398;30.324;2022-11-15T03:09:35;5.10;99.90
18169;DHT22;49877;50.398;30.324;2022-11-15T03:12:11;5.10;99.90
18169;DHT22;49877;50.398;30.324;2022-11-15T06:07:26;4.20;99.90
18169;DHT22;49877;50.398;30.324;2022-11-15T06:09:53;4.90;99.90
18169;DHT22;49877;50.398;30.324;2022-11-15T06:12:20;4.90;99.90
18169;DHT22;49877;50.398;30.324;2022-11-15T06:14:46;5.00;99.90
18169;DHT22;49877;50.398;30.324;2022-11-15T06:17:13;5.10;99.90
18169;DHT22;49877;50.398;30.324;2022-11-15T06:19:40;5.10;99.90
18169;DHT22;49877;50.398;30.324;2022-11-15T06:22:07;5.20;99.90
18169;DHT22;49877;50.398;30.324;2022-11-15T06:24:36;5.30;99.90
18169;DHT22;49877;50.398;30.324;2022-11-15T06:27:03;5.30;99.90
18169;DHT22;49877;50.398;30.324;2022-11-15T06:29:29;5.40;99.90
18169;DHT22;49877;50.398;30.324;2022-11-15T06:31:56;5.40;99.90
18169;DHT22;49877;50.398;30.324;2022-11-15T06:34:23;5.40;99.90
18169;DHT22;49877;50.398;30.324;2022-11-15T06:36:50;5.40;99.90
18169;DHT22;49877;50.398;30.324;2022-11-15T06:39:16;5.50;99.90
18169;DHT22;49877;50.398;30.324;2022-11-15T06:41:45;5.50;99.90
18169;DHT22;49877;50.398;30.324;2022-11-15T06:44:11;5.50;99.90
18169;DHT22;49877;50.398;30.324;2022-11-15T06:46:38;5.60;99.90
18169;DHT22;49877;50.398;30.324;2022-11-15T06:49:05;5.50;99.90
18169;DHT22;49877;50.398;30.324;2022-11-15T06:51:32;5.60;99.90
18169;DHT22;49877;50.398;30.324;2022-11-15T06:53:58;5.50;99.90
18169;DHT22;49877;50.398;30.324;2022-11-15T06:56:25;5.60;99.90
18169;DHT22;49877;50.398;30.324;2022-11-15T06:58:53;5.60;99.90
18169;DHT22;49877;50.398;30.324;2022-11-15T07:01:21;5.60;99.90
18169;DHT22;49877;50.398;30.324;2022-11-15T07:03:48;5.60;99.90
18169;DHT22;49877;50.398;30.324;2022-11-15T07:06:15;5.60;99.90
18169;DHT22;49877;50.398;30.324;2022-11-15T07:08:41;5.60;99.90
18169;DHT22;49877;50.398;30.324;2022-11-15T07:11:08;5.60;99.90
18169;DHT22;49877;50.398;30.324;2022-11-15T07:13:36;5.60;99.90
18169;DHT22;49877;50.398;30.324;2022-11-15T07:16:07;5.70;99.90
18169;DHT22;49877;50.398;30.324;2022-11-15T07:18:34;5.70;99.90
18169;DHT22;49877;50.398;30.324;2022-11-15T07:21:02;5.70;99.90
18169;DHT22;49877;50.398;30.324;2022-11-15T07:23:29;5.70;99.90
18169;DHT22;49877;50.398;30.324;2022-11-15T07:25:56;5.70;99.90
18169;DHT22;49877;50.398;30.324;2022-11-15T07:28:24;5.70;99.90
18169;DHT22;49877;50.398;30.324;2022-11-15T07:30:51;5.80;99.90
18169;DHT22;49877;50.398;30.324;2022-11-15T07:33:19;5.80;99.90
18169;DHT22;49877;50.398;30.324;2022-11-15T07:35:46;5.80;99.90
18169;DHT22;49877;50.398;30.324;2022-11-15T07:38:14;5.80;99.90
18169;DHT22;49877;50.398;30.324;2022-11-15T07:40:45;5.80;99.90
18169;DHT22;49877;50.398;30.324;2022-11-15T07:43:12;5.70;99.90
18169;DHT22;49877;50.398;30.324;2022-11-15T07:45:41;5.70;99.90
18169;DHT22;49877;50.398;30.324;2022-11-15T07:48:08;5.70;99.90
18169;DHT22;49877;50.398;30.324;2022-11-15T07:50:36;5.70;99.90
18169;DHT22;49877;50.398;30.324;2022-11-15T07:53:02;5.70;99.90
18169;DHT22;49877;50.398;30.324;2022-11-15T07:55:29;5.70;99.90
18169;DHT22;49877;50.398;30.324;2022-11-15T07:58:00;5.70;99.90
18169;DHT22;49877;50.398;30.324;2022-11-15T08:00:28;5.70;99.90
18169;DHT22;49877;50.398;30.324;2022-11-15T08:03:01;5.60;99.90
18169;DHT22;49877;50.398;30.324;2022-11-15T08:05:28;5.60;99.90
18169;DHT22;49877;50.398;30.324;2022-11-15T08:07:57;5.50;99.90
18169;DHT22;49877;50.398;30.324;2022-11-15T08:10:24;5.50;99.90
18169;DHT22;49877;50.398;30.324;2022-11-15T08:12:57;5.50;99.90
18169;DHT22;49877;50.398;30.324;2022-11-15T08:15:24;5.40;99.90
18169;DHT22;49877;50.398;30.324;2022-11-15T08:17:54;5.40;99.90
18169;DHT22;49877;50.398;30.324;2022-11-15T08:20:21;5.40;99.90
18169;DHT22;49877;50.398;30.324;2022-11-15T08:22:47;5.50;99.90
18169;DHT22;49877;50.398;30.324;2022-11-15T08:25:16;5.40;99.90
18169;DHT22;49877;50.398;30.324;2022-11-15T08:27:43;5.50;99.90
18169;DHT22;49877;50.398;30.324;2022-11-15T08:30:11;5.40;99.90
18169;DHT22;49877;50.398;30.324;2022-11-15T08:32:39;5.40;99.90
18169;DHT22;49877;50.398;30.324;2022-11-15T08:35:06;5.40;99.90
18169;DHT22;49877;50.398;30.324;2022-11-15T08:37:33;5.40;99.90
18169;DHT22;49877;50.398;30.324;2022-11-15T08:40:00;5.40;99.90
18169;DHT22;49877;50.398;30.324;2022-11-15T08:42:28;5.40;99.90
18169;DHT22;49877;50.398;30.324;2022-11-15T08:44:55;5.40;99.90
18169;DHT22;49877;50.398;30.324;2022-11-15T08:47:22;5.40;99.90
18169;DHT22;49877;50.398;30.324;2022-11-15T08:49:49;5.40;99.90
18169;DHT22;49877;50.398;30.324;2022-11-15T08:52:16;5.40;99.90
18169;DHT22;49877;50.398;30.324;2022-11-15T08:54:43;5.40;99.90
18169;DHT22;49877;50.398;30.324;2022-11-15T08:57:10;5.40;99.90
18169;DHT22;49877;50.398;30.324;2022-11-15T08:59:38;5.40;99.90
18169;DHT22;49877;50.398;30.324;2022-11-15T09:02:05;5.50;99.90
18169;DHT22;49877;50.398;30.324;2022-11-15T09:04:32;5.50;99.90
18169;DHT22;49877;50.398;30.324;2022-11-15T09:06:59;5.50;99.90
18169;DHT22;49877;50.398;30.324;2022-11-15T09:09:26;5.60;99.90
18169;DHT22;49877;50.398;30.324;2022-11-15T09:11:53;5.60;99.90
18169;DHT22;49877;50.398;30.324;2022-11-15T09:14:19;5.60;99.90
18169;DHT22;49877;50.398;30.324;2022-11-15T09:16:48;5.70;99.90
18169;DHT22;49877;50.398;30.324;2022-11-15T09:19:14;5.70;99.90
18169;DHT22;49877;50.398;30.324;2022-11-15T09:21:41;5.70;99.90
18169;DHT22;49877;50.398;30.324;2022-11-15T09:24:08;5.80;99.90
18169;DHT22;49877;50.398;30.324;2022-11-15T09:26:35;5.80;99.90
18169;DHT22;49877;50.398;30.324;2022-11-15T09:29:02;5.80;99.90
18169;DHT22;49877;50.398;30.324;2022-11-15T09:31:29;5.80;99.90
18169;DHT22;49877;50.398;30.324;2022-11-15T09:33:57;5.90;99.90
18169;DHT22;49877;50.398;30.324;2022-11-15T09:36:24;5.90;99.90
18169;DHT22;49877;50.398;30.324;2022-11-15T09:38:51;5.90;99.90
18169;DHT22;49877;50.398;30.324;2022-11-15T09:44:36;5.90;99.90
18169;DHT22;49877;50.398;30.324;2022-11-15T09:47:16;5.90;99.90
18169;DHT22;49877;50.398;30.324;2022-11-15T09:49:53;5.90;99.90
18169;DHT22;49877;50.398;30.324;2022-11-15T09:52:21;5.90;99.90
18169;DHT22;49877;50.398;30.324;2022-11-15T09:54:50;5.90;99.90
18169;DHT22;49877;50.398;30.324;2022-11-15T09:57:21;5.90;99.90
18169;DHT22;49877;50.398;30.324;2022-11-15T09:59:59;5.90;99.90
18169;DHT22;49877;50.398;30.324;2022-11-15T10:02:41;5.90;99.90
18169;DHT22;49877;50.398;30.324;2022-11-15T10:05:14;6.00;99.90
18169;DHT22;49877;50.398;30.324;2022-11-15T10:07:48;6.00;99.90
18169;DHT22;49877;50.398;30.324;2022-11-15T10:10:22;6.10;99.90
18169;DHT22;49877;50.398;30.324;2022-11-15T10:12:52;6.10;99.90
18169;DHT22;49877;50.398;30.324;2022-11-15T10:15:20;6.20;99.90
18169;DHT22;49877;50.398;30.324;2022-11-15T10:18:13;6.20;99.90
18169;DHT22;49877;50.398;30.324;2022-11-15T10:20:56;6.20;99.90
18169;DHT22;49877;50.398;30.324;2022-11-15T10:23:24;6.20;99.90
18169;DHT22;49877;50.398;30.324;2022-11-15T10:25:52;6.20;99.90
18169;DHT22;49877;50.398;30.324;2022-11-15T10:28:22;6.20;99.90
18169;DHT22;49877;50.398;30.324;2022-11-15T10:30:53;6.30;99.90
18169;DHT22;49877;50.398;30.324;2022-11-15T10:33:26;6.30;99.90
18169;DHT22;49877;50.398;30.324;2022-11-15T10:36:17;6.30;99.90
18169;DHT22;49877;50.398;30.324;2022-11-15T10:38:55;6.30;99.90
18169;DHT22;49877;50.398;30.324;2022-11-15T10:41:30;6.30;99.90
18169;DHT22;49877;50.398;30.324;2022-11-15T10:44:11;6.20;99.90
18169;DHT22;49877;50.398;30.324;2022-11-15T10:46:40;6.30;99.90
18169;DHT22;49877;50.398;30.324;2022-11-15T10:49:13;6.30;99.90
18169;DHT22;49877;50.398;30.324;2022-11-15T10:51:45;6.20;99.90
18169;DHT22;49877;50.398;30.324;2022-11-15T10:54:14;6.30;99.90
18169;DHT22;49877;50.398;30.324;2022-11-15T10:56:42;6.20;99.90
18169;DHT22;49877;50.398;30.324;2022-11-15T10:59:20;6.20;99.90
18169;DHT22;49877;50.398;30.324;2022-11-15T11:01:50;6.20;99.90
18169;DHT22;49877;50.398;30.324;2022-11-15T11:04:17;6.20;99.90
18169;DHT22;49877;50.398;30.324;2022-11-15T11:06:49;6.20;99.90
18169;DHT22;49877;50.398;30.324;2022-11-15T11:09:31;6.20;99.90
18169;DHT22;49877;50.398;30.324;2022-11-15T11:11:59;6.20;99.90
18169;DHT22;49877;50.398;30.324;2022-11-15T11:14:27;6.30;99.90
18169;DHT22;49877;50.398;30.324;2022-11-15T11:17:03;6.30;99.90
18169;DHT22;49877;50.398;30.324;2022-11-15T11:19:48;6.30;99.90
18169;DHT22;49877;50.398;30.324;2022-11-15T11:22:24;6.40;99.90
18169;DHT22;49877;50.398;30.324;2022-11-15T11:25:03;6.40;99.90
18169;DHT22;49877;50.398;30.324;2022-11-15T11:27:40;6.40;99.90
18169;DHT22;49877;50.398;30.324;2022-11-15T11:30:12;6.40;99.90
18169;DHT22;49877;50.398;30.324;2022-11-15T11:33:05;6.40;99.90
18169;DHT22;49877;50.398;30.324;2022-11-15T11:35:39;6.40;99.90
18169;DHT22;49877;50.398;30.324;2022-11-15T11:38:29;6.50;99.90
18169;DHT22;49877;50.398;30.324;2022-11-15T11:41:04;6.40;99.90
18169;DHT22;49877;50.398;30.324;2022-11-15T11:43:41;6.40;99.90
18169;DHT22;49877;50.398;30.324;2022-11-15T11:46:31;6.40;99.90
18169;DHT22;49877;50.398;30.324;2022-11-15T11:49:07;6.40;99.90
18169;DHT22;49877;50.398;30.324;2022-11-15T11:51:39;6.40;99.90
18169;DHT22;49877;50.398;30.324;2022-11-15T11:54:13;6.40;99.90
18169;DHT22;49877;50.398;30.324;2022-11-15T11:56:44;6.40;99.90
18169;DHT22;49877;50.398;30.324;2022-11-15T11:59:18;6.40;99.90
18169;DHT22;49877;50.398;30.324;2022-11-15T12:01:45;6.40;99.90
18169;DHT22;49877;50.398;30.324;2022-11-15T12:04:16;6.40;99.90
18169;DHT22;49877;50.398;30.324;2022-11-15T12:06:49;6.50;99.90
18169;DHT22;49877;50.398;30.324;2022-11-15T12:09:21;6.50;99.90
18169;DHT22;49877;50.398;30.324;2022-11-15T12:11:54;6.40;99.90
18169;DHT22;49877;50.398;30.324;2022-11-15T12:14:29;6.40;99.90
18169;DHT22;49877;50.398;30.324;2022-11-15T12:16:58;6.40;99.90
18169;DHT22;49877;50.398;30.324;2022-11-15T12:19:25;6.40;99.90
18169;DHT22;49877;50.398;30.324;2022-11-15T12:21:56;6.40;99.90
18169;DHT22;49877;50.398;30.324;2022-11-15T12:24:29;6.50;99.90
18169;DHT22;49877;50.398;30.324;2022-11-15T12:27:01;6.50;99.90
18169;DHT22;49877;50.398;30.324;2022-11-15T12:29:36;6.50;99.90
18169;DHT22;49877;50.398;30.324;2022-11-15T12:32:05;6.50;99.90
18169;DHT22;49877;50.398;30.324;2022-11-15T12:34:42;6.60;99.90
18169;DHT22;49877;50.398;30.324;2022-11-15T12:46:11;6.80;99.90
18169;DHT22;49877;50.398;30.324;2022-11-15T12:48:47;6.80;99.90
18169;DHT22;49877;50.398;30.324;2022-11-15T12:51:15;6.90;99.90
18169;DHT22;49877;50.398;30.324;2022-11-15T12:53:42;6.80;99.90
18169;DHT22;49877;50.398;30.324;2022-11-15T12:56:21;6.90;99.90
18169;DHT22;49877;50.398;30.324;2022-11-15T12:58:54;6.90;99.90
18169;DHT22;49877;50.398;30.324;2022-11-15T13:01:56;6.90;99.90
18169;DHT22;49877;50.398;30.324;2022-11-15T13:04:26;6.90;99.90
18169;DHT22;49877;50.398;30.324;2022-11-15T13:06:55;7.00;99.90
18169;DHT22;49877;50.398;30.324;2022-11-15T13:09:50;7.00;99.90
18169;DHT22;49877;50.398;30.324;2022-11-15T13:12:50;7.10;99.90
18169;DHT22;49877;50.398;30.324;2022-11-15T13:18:33;7.10;99.90
18169;DHT22;49877;50.398;30.324;2022-11-15T13:21:01;7.10;99.90
18169;DHT22;49877;50.398;30.324;2022-11-15T13:23:52;7.10;99.90
18169;DHT22;49877;50.398;30.324;2022-11-15T13:26:19;7.20;99.90
18169;DHT22;49877;50.398;30.324;2022-11-15T13:28:50;7.20;99.90
18169;DHT22;49877;50.398;30.324;2022-11-15T13:31:30;7.10;99.90
18169;DHT22;49877;50.398;30.324;2022-11-15T13:34:02;7.10;99.90
18169;DHT22;49877;50.398;30.324;2022-11-15T13:36:31;7.20;99.90
18169;DHT22;49877;50.398;30.324;2022-11-15T13:39:01;7.10;99.90
18169;DHT22;49877;50.398;30.324;2022-11-15T13:41:30;7.20;99.90
18169;DHT22;49877;50.398;30.324;2022-11-15T13:44:00;7.20;99.90
18169;DHT22;49877;50.398;30.324;2022-11-15T13:46:28;7.20;99.90
18169;DHT22;49877;50.398;30.324;2022-11-15T13:48:57;7.20;99.90
18169;DHT22;49877;50.398;30.324;2022-11-15T13:51:30;7.30;99.90
18169;DHT22;49877;50.398;30.324;2022-11-15T13:54:01;7.30;99.90
18169;DHT22;49877;50.398;30.324;2022-11-15T13:56:32;7.30;99.90
18169;DHT22;49877;50.398;30.324;2022-11-15T13:59:07;7.30;99.90
18169;DHT22;49877;50.398;30.324;2022-11-15T14:01:34;7.30;99.90
18169;DHT22;49877;50.398;30.324;2022-11-15T14:04:01;7.20;99.90
18169;DHT22;49877;50.398;30.324;2022-11-15T14:06:30;7.30;99.90
18169;DHT22;49877;50.398;30.324;2022-11-15T14:09:00;7.30;99.90
18169;DHT22;49877;50.398;30.324;2022-11-15T14:11:28;7.30;99.90
18169;DHT22;49877;50.398;30.324;2022-11-15T14:14:13;7.30;99.90
18169;DHT22;49877;50.398;30.324;2022-11-15T14:16:43;7.30;99.90
18169;DHT22;49877;50.398;30.324;2022-11-15T14:19:12;7.40;99.90
18169;DHT22;49877;50.398;30.324;2022-11-15T14:22:13;7.40;99.90
18169;DHT22;49877;50.398;30.324;2022-11-15T14:24:42;7.40;99.90
18169;DHT22;49877;50.398;30.324;2022-11-15T14:27:22;7.40;99.90
18169;DHT22;49877;50.398;30.324;2022-11-15T14:29:51;7.40;99.90
18169;DHT22;49877;50.398;30.324;2022-11-15T14:32:20;7.40;99.90
18169;DHT22;49877;50.398;30.324;2022-11-15T14:34:48;7.40;99.90
18169;DHT22;49877;50.398;30.324;2022-11-15T14:37:20;7.40;99.90
18169;DHT22;49877;50.398;30.324;2022-11-15T14:54:23;7.30;99.90
18169;DHT22;49877;50.398;30.324;2022-11-15T14:56:50;7.50;99.90
18169;DHT22;49877;50.398;30.324;2022-11-15T14:59:17;7.50;99.90
18169;DHT22;49877;50.398;30.324;2022-11-15T15:01:44;7.50;99.90
18169;DHT22;49877;50.398;30.324;2022-11-15T15:04:11;7.50;99.90
18169;DHT22;49877;50.398;30.324;2022-11-15T15:06:38;7.50;99.90
18169;DHT22;49877;50.398;30.324;2022-11-15T15:09:04;7.50;99.90
18169;DHT22;49877;50.398;30.324;2022-11-15T15:11:32;7.50;99.90
18169;DHT22;49877;50.398;30.324;2022-11-15T15:13:59;7.50;99.90
18169;DHT22;49877;50.398;30.324;2022-11-15T15:16:26;7.50;99.90
18169;DHT22;49877;50.398;30.324;2022-11-15T15:18:54;7.50;99.90
18169;DHT22;49877;50.398;30.324;2022-11-15T15:21:23;7.50;99.90
18169;DHT22;49877;50.398;30.324;2022-11-15T15:23:50;7.50;99.90
18169;DHT22;49877;50.398;30.324;2022-11-15T15:26:17;7.50;99.90
18169;DHT22;49877;50.398;30.324;2022-11-15T15:28:45;7.50;99.90
18169;DHT22;49877;50.398;30.324;2022-11-15T15:31:14;7.50;99.90
18169;DHT22;49877;50.398;30.324;2022-11-15T15:33:41;7.60;99.90
18169;DHT22;49877;50.398;30.324;2022-11-15T15:36:10;7.60;99.90
18169;DHT22;49877;50.398;30.324;2022-11-15T15:38:37;7.60;99.90
18169;DHT22;49877;50.398;30.324;2022-11-15T15:41:09;7.50;99.90
18169;DHT22;49877;50.398;30.324;2022-11-15T15:43:35;7.50;99.90
18169;DHT22;49877;50.398;30.324;2022-11-15T15:59:00;7.60;99.90
18169;DHT22;49877;50.398;30.324;2022-11-15T16:01:26;7.80;99.90
18169;DHT22;49877;50.398;30.324;2022-11-15T16:03:53;7.90;99.90
18169;DHT22;49877;50.398;30.324;2022-11-15T16:06:36;7.90;99.90
18169;DHT22;49877;50.398;30.324;2022-11-15T16:09:04;7.90;99.90
18169;DHT22;49877;50.398;30.324;2022-11-15T16:11:31;7.90;99.90
18169;DHT22;49877;50.398;30.324;2022-11-15T16:13:59;7.80;99.90
18169;DHT22;49877;50.398;30.324;2022-11-15T16:16:26;7.80;99.90
18169;DHT22;49877;50.398;30.324;2022-11-15T16:18:53;7.80;99.90
18169;DHT22;49877;50.398;30.324;2022-11-15T16:21:20;7.80;99.90
18169;DHT22;49877;50.398;30.324;2022-11-15T16:23:47;7.80;99.90
18169;DHT22;49877;50.398;30.324;2022-11-15T16:26:19;7.70;99.90
18169;DHT22;49877;50.398;30.324;2022-11-15T16:28:46;7.70;99.90
18169;DHT22;49877;50.398;30.324;2022-11-15T16:31:15;7.70;99.90
18169;DHT22;49877;50.398;30.324;2022-11-15T16:33:43;7.80;99.90
18169;DHT22;49877;50.398;30.324;2022-11-15T16:36:18;7.80;99.90
18169;DHT22;49877;50.398;30.324;2022-11-15T16:38:45;7.80;99.90
18169;DHT22;49877;50.398;30.324;2022-11-15T16:41:12;7.80;99.90
18169;DHT22;49877;50.398;30.324;2022-11-15T16:43:39;7.70;99.90
18169;DHT22;49877;50.398;30.324;2022-11-15T16:46:08;7.80;99.90
18169;DHT22;49877;50.398;30.324;2022-11-15T16:48:40;7.80;99.90
18169;DHT22;49877;50.398;30.324;2022-11-15T16:51:06;7.80;99.90
18169;DHT22;49877;50.398;30.324;2022-11-15T16:53:35;7.80;99.90
18169;DHT22;49877;50.398;30.324;2022-11-15T16:56:02;7.80;99.90
18169;DHT22;49877;50.398;30.324;2022-11-15T16:58:29;7.80;99.90
18169;DHT22;49877;50.398;30.324;2022-11-15T17:00:57;7.80;99.90
18169;DHT22;49877;50.398;30.324;2022-11-15T17:03:24;7.80;99.90
18169;DHT22;49877;50.398;30.324;2022-11-15T17:05:57;7.70;99.90
18169;DHT22;49877;50.398;30.324;2022-11-15T17:08:24;7.80;99.90
18169;DHT22;49877;50.398;30.324;2022-11-15T17:10:53;7.80;99.90
18169;DHT22;49877;50.398;30.324;2022-11-15T17:13:19;7.80;99.90
18169;DHT22;49877;50.398;30.324;2022-11-15T17:15:46;7.80;99.90
18169;DHT22;49877;50.398;30.324;2022-11-15T17:18:13;7.80;99.90
18169;DHT22;49877;50.398;30.324;2022-11-15T17:20:40;7.80;99.90
18169;DHT22;49877;50.398;30.324;2022-11-15T17:23:12;7.80;99.90
18169;DHT22;49877;50.398;30.324;2022-11-15T17:25:39;7.80;99.90
18169;DHT22;49877;50.398;30.324;2022-11-15T17:28:06;7.80;99.90
18169;DHT22;49877;50.398;30.324;2022-11-15T17:30:33;7.80;99.90
18169;DHT22;49877;50.398;30.324;2022-11-15T17:33:00;7.80;99.90
18169;DHT22;49877;50.398;30.324;2022-11-15T17:35:26;7.80;99.90
18169;DHT22;49877;50.398;30.324;2022-11-15T17:37:53;7.80;99.90
18169;DHT22;49877;50.398;30.324;2022-11-15T17:40:21;7.80;99.90
18169;DHT22;49877;50.398;30.324;2022-11-15T17:42:48;7.80;99.90
18169;DHT22;49877;50.398;30.324;2022-11-15T17:45:15;7.80;99.90
18169;DHT22;49877;50.398;30.324;2022-11-15T17:47:42;7.80;99.90
18169;DHT22;49877;50.398;30.324;2022-11-15T17:50:09;7.80;99.90
18169;DHT22;49877;50.398;30.324;2022-11-15T17:52:36;7.80;99.90
18169;DHT22;49877;50.398;30.324;2022-11-15T17:55:03;7.80;99.90
18169;DHT22;49877;50.398;30.324;2022-11-15T17:57:31;7.80;99.90
18169;DHT22;49877;50.398;30.324;2022-11-15T17:59:58;7.80;99.90
18169;DHT22;49877;50.398;30.324;2022-11-15T18:02:25;7.80;99.90
18169;DHT22;49877;50.398;30.324;2022-11-15T18:04:51;7.80;99.90
18169;DHT22;49877;50.398;30.324;2022-11-15T18:07:18;7.80;99.90
18169;DHT22;49877;50.398;30.324;2022-11-15T18:09:45;7.80;99.90
18169;DHT22;49877;50.398;30.324;2022-11-15T18:12:13;7.80;99.90
18169;DHT22;49877;50.398;30.324;2022-11-15T18:14:42;7.90;99.90
18169;DHT22;49877;50.398;30.324;2022-11-15T18:17:09;7.90;99.90
18169;DHT22;49877;50.398;30.324;2022-11-15T18:19:36;7.90;99.90
18169;DHT22;49877;50.398;30.324;2022-11-15T18:22:02;7.90;99.90
18169;DHT22;49877;50.398;30.324;2022-11-15T18:24:32;7.90;99.90
18169;DHT22;49877;50.398;30.324;2022-11-15T18:27:01;7.90;99.90
18169;DHT22;49877;50.398;30.324;2022-11-15T18:29:28;7.90;99.90
18169;DHT22;49877;50.398;30.324;2022-11-15T18:31:57;7.90;99.90
18169;DHT22;49877;50.398;30.324;2022-11-15T18:34:25;7.90;99.90
18169;DHT22;49877;50.398;30.324;2022-11-15T18:36:56;7.90;99.90
18169;DHT22;49877;50.398;30.324;2022-11-15T18:39:23;7.90;99.90
18169;DHT22;49877;50.398;30.324;2022-11-15T18:41:50;7.90;99.90
18169;DHT22;49877;50.398;30.324;2022-11-15T18:44:17;7.90;99.90
18169;DHT22;49877;50.398;30.324;2022-11-15T18:46:44;7.90;99.90
18169;DHT22;49877;50.398;30.324;2022-11-15T18:49:13;7.90;99.90
18169;DHT22;49877;50.398;30.324;2022-11-15T18:51:41;7.90;99.90
18169;DHT22;49877;50.398;30.324;2022-11-15T18:54:09;7.90;99.90
18169;DHT22;49877;50.398;30.324;2022-11-15T18:56:37;7.80;99.90
18169;DHT22;49877;50.398;30.324;2022-11-15T18:59:04;7.90;99.90
18169;DHT22;49877;50.398;30.324;2022-11-15T19:01:34;7.90;99.90
18169;DHT22;49877;50.398;30.324;2022-11-15T19:04:04;7.90;99.90
18169;DHT22;49877;50.398;30.324;2022-11-15T19:06:36;7.90;99.90
18169;DHT22;49877;50.398;30.324;2022-11-15T19:09:03;7.90;99.90
18169;DHT22;49877;50.398;30.324;2022-11-15T19:11:31;7.80;99.90
18169;DHT22;49877;50.398;30.324;2022-11-15T19:14:02;7.80;99.90
18169;DHT22;49877;50.398;30.324;2022-11-15T19:16:30;7.80;99.90
18169;DHT22;49877;50.398;30.324;2022-11-15T19:18:59;7.90;99.90
18169;DHT22;49877;50.398;30.324;2022-11-15T19:21:27;7.90;99.90
18169;DHT22;49877;50.398;30.324;2022-11-15T19:23:57;7.80;99.90
18169;DHT22;49877;50.398;30.324;2022-11-15T19:26:25;7.80;99.90
18169;DHT22;49877;50.398;30.324;2022-11-15T19:28:53;7.80;99.90
18169;DHT22;49877;50.398;30.324;2022-11-15T19:31:21;7.80;99.90